Time;durP1;ratioP1;P1;durP2;ratioP2;P2;SDS_P1;SDS_P2;PMS_P1;PMS_P2;Temp;Humidity;BMP_temperature;BMP_pressure;BME280_temperature;BME280_humidity;BME280_pressure;Samples;Min_cycle;Max_cycle;Signal;HPM_P1;HPM_P2
2022/07/25 00:00:08;;;;;;;14.57;6.13;;;20.90;99.90;;;;;;5078617;28;20196;-44
2022/07/25 00:02:34;;;;;;;9.83;5.63;;;20.90;99.90;;;;;;5078823;28;20172;-43
2022/07/25 00:05:00;;;;;;;10.93;6.30;;;20.80;99.90;;;;;;5079137;28;20519;-43
2022/07/25 00:07:26;;;;;;;8.83;5.33;;;20.80;99.90;;;;;;5079412;28;20228;-43
2022/07/25 00:09:52;;;;;;;10.97;5.80;;;20.70;99.90;;;;;;5078350;28;20221;-44
2022/07/25 00:12:18;;;;;;;11.07;5.30;;;20.70;99.90;;;;;;5079181;28;20179;-42
2022/07/25 00:14:44;;;;;;;13.53;5.80;;;20.70;99.90;;;;;;5078434;28;20190;-42
2022/07/25 00:17:10;;;;;;;8.87;5.10;;;20.70;99.90;;;;;;5076547;28;20171;-46
2022/07/25 00:19:35;;;;;;;13.10;5.70;;;20.60;99.90;;;;;;5076881;28;20188;-42
2022/07/25 00:22:01;;;;;;;15.23;5.90;;;20.60;99.90;;;;;;5076823;28;20202;-45
2022/07/25 00:24:27;;;;;;;8.93;5.47;;;20.50;99.90;;;;;;5076783;28;20651;-45
2022/07/25 00:26:52;;;;;;;10.47;5.50;;;20.50;99.90;;;;;;5077040;28;20245;-43
2022/07/25 00:29:18;;;;;;;7.00;5.73;;;20.50;99.90;;;;;;5076806;28;20206;-44
2022/07/25 00:31:43;;;;;;;10.00;5.77;;;20.40;99.90;;;;;;5076783;28;20172;-44
2022/07/25 00:34:09;;;;;;;7.87;5.03;;;20.40;99.90;;;;;;5076981;28;20199;-43
2022/07/25 00:36:34;;;;;;;8.60;5.63;;;20.30;99.90;;;;;;5076494;28;20176;-46
2022/07/25 00:39:00;;;;;;;7.10;5.10;;;20.30;99.90;;;;;;5076500;28;20194;-44
2022/07/25 00:41:26;;;;;;;8.57;4.77;;;20.30;99.90;;;;;;5076326;28;20192;-44
2022/07/25 00:43:51;;;;;;;9.20;5.30;;;20.20;99.90;;;;;;5075877;28;20168;-44
2022/07/25 00:46:17;;;;;;;8.73;5.63;;;20.10;99.90;;;;;;5075746;28;20229;-43
2022/07/25 00:48:43;;;;;;;8.00;5.50;;;20.10;99.90;;;;;;5076291;28;20590;-43
2022/07/25 00:51:10;;;;;;;8.70;5.17;;;20.10;99.90;;;;;;5075518;28;20270;-43
2022/07/25 00:53:37;;;;;;;6.83;5.57;;;20.00;99.90;;;;;;5075599;28;20168;-42
2022/07/25 00:56:04;;;;;;;6.03;5.43;;;20.00;99.90;;;;;;5075972;28;20191;-43
2022/07/25 00:58:31;;;;;;;9.10;5.37;;;19.90;99.90;;;;;;5075402;28;20182;-45
2022/07/25 01:00:57;;;;;;;7.40;5.47;;;19.90;99.90;;;;;;5075796;28;20196;-45
2022/07/25 01:03:23;;;;;;;6.07;4.97;;;19.90;99.90;;;;;;5075953;28;20179;-43
2022/07/25 01:05:49;;;;;;;10.57;5.37;;;19.80;99.90;;;;;;5075251;28;20248;-45
2022/07/25 01:08:18;;;;;;;6.57;5.27;;;19.80;99.90;;;;;;5075455;28;20199;-43
2022/07/25 01:10:44;;;;;;;6.10;5.37;;;19.80;99.90;;;;;;5075101;28;20187;-43
2022/07/25 01:13:10;;;;;;;8.30;5.07;;;19.80;99.90;;;;;;5075286;28;20168;-45
2022/07/25 01:15:35;;;;;;;7.40;4.90;;;19.70;99.90;;;;;;5074900;28;20179;-43
2022/07/25 01:18:01;;;;;;;7.20;5.30;;;19.70;99.90;;;;;;5074819;28;20262;-44
2022/07/25 01:20:29;;;;;;;6.17;5.27;;;19.60;99.90;;;;;;5074168;28;20234;-42
2022/07/25 01:22:55;;;;;;;6.63;5.37;;;19.60;99.90;;;;;;5074798;28;20187;-43
2022/07/25 01:25:21;;;;;;;6.83;4.87;;;19.60;99.90;;;;;;5075043;28;20325;-42
2022/07/25 01:27:48;;;;;;;8.60;5.40;;;19.60;99.90;;;;;;5074529;28;20209;-43
2022/07/25 01:30:15;;;;;;;10.27;5.37;;;19.50;99.90;;;;;;5074740;28;20663;-45
2022/07/25 01:32:42;;;;;;;6.27;5.30;;;19.50;99.90;;;;;;5074986;28;20183;-42
2022/07/25 01:35:08;;;;;;;7.37;5.40;;;19.50;99.90;;;;;;5074686;28;20200;-43
2022/07/25 01:37:34;;;;;;;6.60;5.10;;;19.40;99.90;;;;;;5074338;28;20710;-44
2022/07/25 01:40:00;;;;;;;7.10;5.50;;;19.40;99.90;;;;;;5074328;28;20226;-43
2022/07/25 01:42:26;;;;;;;6.43;5.03;;;19.40;99.90;;;;;;5074346;28;20576;-42
2022/07/25 01:44:52;;;;;;;6.00;5.17;;;19.30;99.90;;;;;;5074610;28;20199;-42
2022/07/25 01:47:18;;;;;;;7.50;5.00;;;19.30;99.90;;;;;;5074535;28;20526;-44
2022/07/25 01:49:44;;;;;;;7.30;5.17;;;19.30;99.90;;;;;;5056403;28;20215;-42
2022/07/25 01:52:10;;;;;;;8.47;5.30;;;19.30;99.90;;;;;;5074619;28;20180;-44
2022/07/25 01:54:36;;;;;;;11.30;5.23;;;19.20;99.90;;;;;;5056354;28;20266;-44
2022/07/25 01:57:02;;;;;;;8.73;5.30;;;19.20;99.90;;;;;;5074359;28;20266;-43
2022/07/25 01:59:28;;;;;;;6.93;4.93;;;19.10;99.90;;;;;;5074245;28;20640;-43
2022/07/25 02:01:53;;;;;;;6.73;5.33;;;19.10;99.90;;;;;;5074522;28;20205;-42
2022/07/25 02:04:19;;;;;;;12.50;5.63;;;19.10;99.90;;;;;;5074232;28;20659;-43
2022/07/25 02:06:45;;;;;;;9.97;5.30;;;19.00;99.90;;;;;;5074138;28;20313;-43
2022/07/25 02:09:10;;;;;;;9.93;5.90;;;19.00;99.90;;;;;;5074194;28;20247;-44
2022/07/25 02:11:36;;;;;;;10.77;5.67;;;19.00;99.90;;;;;;5074075;28;20175;-44
2022/07/25 02:14:02;;;;;;;6.07;5.43;;;19.00;99.90;;;;;;5074473;28;20692;-43
2022/07/25 02:16:27;;;;;;;8.10;5.57;;;19.00;99.90;;;;;;5074306;28;20202;-44
2022/07/25 02:18:53;;;;;;;7.70;5.63;;;18.90;99.90;;;;;;5074387;28;20188;-44
2022/07/25 02:21:19;;;;;;;6.77;5.73;;;18.90;99.90;;;;;;5074001;28;20203;-43
2022/07/25 02:23:44;;;;;;;8.37;5.53;;;18.90;99.90;;;;;;5056114;28;20183;-45
2022/07/25 02:26:11;;;;;;;9.33;5.93;;;18.80;99.90;;;;;;5074149;28;20216;-43
2022/07/25 02:28:37;;;;;;;5.97;5.30;;;18.80;99.90;;;;;;5075015;28;20290;-42
2022/07/25 02:31:02;;;;;;;9.80;5.47;;;18.80;99.90;;;;;;5073892;28;20678;-45
2022/07/25 02:33:28;;;;;;;7.73;5.33;;;18.80;99.90;;;;;;5079864;28;20186;-43
2022/07/25 02:35:54;;;;;;;6.67;5.63;;;18.70;99.90;;;;;;5080582;28;20190;-42
2022/07/25 02:38:20;;;;;;;6.77;5.60;;;18.60;99.90;;;;;;5081134;28;20183;-43
2022/07/25 02:40:51;;;;;;;8.63;5.57;;;18.70;99.90;;;;;;5081715;28;20203;-44
2022/07/25 02:43:17;;;;;;;8.70;5.83;;;18.70;99.90;;;;;;5080470;28;20244;-41
2022/07/25 02:45:43;;;;;;;10.67;5.53;;;18.60;99.90;;;;;;5080316;28;20225;-42
2022/07/25 02:48:09;;;;;;;8.90;5.93;;;18.60;99.90;;;;;;5080642;28;20207;-41
2022/07/25 02:50:35;;;;;;;6.50;5.47;;;18.60;99.90;;;;;;5080428;28;20203;-44
2022/07/25 02:53:01;;;;;;;7.20;5.70;;;18.60;99.90;;;;;;5080385;28;20554;-41
2022/07/25 02:55:26;;;;;;;10.33;5.83;;;18.60;99.90;;;;;;5080480;28;20189;-45
2022/07/25 02:57:54;;;;;;;9.73;5.40;;;18.60;99.90;;;;;;5080984;28;20250;-41
2022/07/25 03:00:20;;;;;;;9.50;5.37;;;18.60;99.90;;;;;;5080942;28;20203;-43
2022/07/25 03:02:46;;;;;;;7.33;5.43;;;18.60;99.90;;;;;;5084568;28;20670;-43
2022/07/25 03:05:13;;;;;;;12.33;5.70;;;18.60;99.90;;;;;;5087919;28;20184;-44
2022/07/25 03:07:41;;;;;;;5.80;5.20;;;18.50;99.90;;;;;;5083272;28;20222;-45
2022/07/25 03:10:07;;;;;;;9.20;5.70;;;18.50;99.90;;;;;;5079934;28;20195;-46
2022/07/25 03:12:33;;;;;;;7.97;5.47;;;18.60;99.90;;;;;;5080511;28;20176;-43
2022/07/25 03:15:00;;;;;;;6.60;5.13;;;18.50;99.90;;;;;;5080770;28;20266;-43
2022/07/25 03:17:27;;;;;;;8.10;5.20;;;18.50;99.90;;;;;;5080747;28;20217;-45
2022/07/25 03:19:53;;;;;;;9.10;4.77;;;18.40;99.90;;;;;;5062865;28;20202;-45
2022/07/25 03:22:19;;;;;;;6.50;4.87;;;18.40;99.90;;;;;;5080755;28;20180;-44
2022/07/25 03:24:45;;;;;;;7.07;5.60;;;18.40;99.90;;;;;;5080498;28;20184;-43
2022/07/25 03:27:12;;;;;;;6.97;4.97;;;18.40;99.90;;;;;;5062707;28;20218;-43
2022/07/25 03:29:37;;;;;;;7.37;5.40;;;18.40;99.90;;;;;;5080065;28;20293;-45
2022/07/25 03:32:03;;;;;;;11.67;5.60;;;18.40;99.90;;;;;;5079934;28;20241;-45
2022/07/25 03:34:29;;;;;;;8.23;5.20;;;18.30;99.90;;;;;;5080253;28;20180;-44
2022/07/25 03:36:55;;;;;;;6.97;5.37;;;18.30;99.90;;;;;;5080060;28;20267;-45
2022/07/25 03:39:21;;;;;;;6.70;5.53;;;18.30;99.90;;;;;;5079986;28;20183;-44
2022/07/25 03:41:46;;;;;;;7.13;5.33;;;18.30;99.90;;;;;;5080230;28;20179;-44
2022/07/25 03:44:12;;;;;;;9.57;5.13;;;18.30;99.90;;;;;;5077819;28;20221;-44
2022/07/25 03:46:38;;;;;;;9.20;5.37;;;18.30;99.90;;;;;;5076596;28;20207;-43
2022/07/25 03:49:04;;;;;;;6.77;5.27;;;18.30;99.90;;;;;;5077036;28;20647;-43
2022/07/25 03:51:30;;;;;;;7.57;5.23;;;18.30;99.90;;;;;;5077079;28;20199;-41
2022/07/25 03:54:02;;;;;;;5.80;5.03;;;18.30;99.90;;;;;;5076679;28;20178;-43
2022/07/25 03:56:41;;;;;;;7.67;4.93;;;18.30;99.90;;;;;;5076530;28;20197;-43
2022/07/25 03:59:10;;;;;;;11.23;5.33;;;18.30;99.90;;;;;;5076603;28;20541;-43
2022/07/25 04:01:35;;;;;;;6.07;4.97;;;18.30;99.90;;;;;;5076597;28;20196;-44
2022/07/25 04:04:02;;;;;;;6.80;5.20;;;18.30;99.90;;;;;;5076350;28;20550;-44
2022/07/25 04:06:27;;;;;;;8.23;5.13;;;18.30;99.90;;;;;;5076203;28;20188;-45
2022/07/25 04:08:54;;;;;;;8.93;4.97;;;18.30;99.90;;;;;;5076419;28;20222;-44
2022/07/25 04:11:21;;;;;;;6.60;5.17;;;18.30;99.90;;;;;;5076438;28;20633;-43
2022/07/25 04:13:47;;;;;;;11.77;5.40;;;18.30;99.90;;;;;;5075990;28;20190;-44
2022/07/25 04:16:13;;;;;;;6.10;5.17;;;18.40;99.90;;;;;;5076163;28;20258;-44
2022/07/25 04:18:39;;;;;;;6.80;5.00;;;18.30;99.90;;;;;;5076419;28;20184;-42
2022/07/25 04:21:06;;;;;;;6.63;5.57;;;18.40;99.90;;;;;;5076053;28;20648;-42
2022/07/25 04:23:31;;;;;;;7.23;5.00;;;18.40;99.90;;;;;;5076054;28;20186;-44
2022/07/25 04:25:57;;;;;;;8.03;5.77;;;18.50;99.90;;;;;;5075981;28;20179;-43
2022/07/25 04:28:23;;;;;;;6.23;5.20;;;18.50;99.90;;;;;;5076010;28;20203;-44
2022/07/25 04:30:49;;;;;;;11.30;4.70;;;18.60;99.90;;;;;;5075888;28;20269;-43
2022/07/25 04:33:16;;;;;;;8.77;5.30;;;18.60;99.90;;;;;;5075988;28;20623;-43
2022/07/25 04:35:42;;;;;;;5.70;5.10;;;18.70;99.90;;;;;;5075694;28;20209;-45
2022/07/25 04:38:07;;;;;;;8.70;5.00;;;18.70;99.90;;;;;;5075957;28;20180;-45
2022/07/25 04:40:33;;;;;;;7.13;5.03;;;18.80;99.90;;;;;;5075740;28;20206;-43
2022/07/25 04:42:59;;;;;;;7.13;5.63;;;18.80;99.90;;;;;;5075635;28;20176;-43
2022/07/25 04:45:25;;;;;;;5.93;5.10;;;18.90;99.90;;;;;;5075734;28;20208;-43
2022/07/25 04:47:50;;;;;;;5.57;5.00;;;18.90;99.90;;;;;;5075622;28;20191;-42
2022/07/25 04:50:16;;;;;;;6.40;5.00;;;18.90;99.90;;;;;;5075199;28;20187;-44
2022/07/25 04:52:42;;;;;;;7.57;4.70;;;19.00;99.90;;;;;;5075412;28;20605;-44
2022/07/25 04:55:09;;;;;;;7.93;5.00;;;19.00;99.90;;;;;;5074956;28;20168;-42
2022/07/25 04:57:35;;;;;;;6.53;4.97;;;19.00;99.90;;;;;;5075261;28;20186;-44
2022/07/25 05:00:02;;;;;;;5.90;5.00;;;19.10;99.90;;;;;;5075689;28;20286;-43
2022/07/25 05:02:28;;;;;;;9.93;5.10;;;19.20;99.90;;;;;;5075097;28;20234;-46
2022/07/25 05:04:54;;;;;;;5.77;5.10;;;19.20;99.90;;;;;;5075367;28;20577;-42
2022/07/25 05:07:19;;;;;;;8.07;5.40;;;19.30;99.90;;;;;;5075108;28;20555;-44
2022/07/25 05:09:45;;;;;;;6.23;4.90;;;19.30;99.90;;;;;;5075022;28;20296;-43
2022/07/25 05:12:11;;;;;;;9.47;5.63;;;19.40;99.90;;;;;;5075114;28;20188;-44
2022/07/25 05:14:37;;;;;;;7.10;5.07;;;19.40;99.90;;;;;;5075165;28;20202;-42
2022/07/25 05:17:03;;;;;;;8.43;5.43;;;19.50;99.90;;;;;;5074663;28;20183;-43
2022/07/25 05:19:28;;;;;;;8.53;5.00;;;19.60;99.90;;;;;;5075772;28;20183;-44
2022/07/25 05:21:54;;;;;;;6.43;5.30;;;19.70;99.90;;;;;;5075344;28;20187;-42
2022/07/25 05:24:21;;;;;;;6.93;5.17;;;19.80;99.90;;;;;;5074626;28;20176;-44
2022/07/25 05:26:47;;;;;;;5.37;4.83;;;19.90;99.90;;;;;;5075091;28;20237;-43
2022/07/25 05:29:13;;;;;;;10.40;5.50;;;19.90;99.90;;;;;;5074501;28;20207;-43
2022/07/25 05:31:38;;;;;;;7.40;5.30;;;20.00;99.90;;;;;;5074818;28;20761;-43
2022/07/25 05:34:04;;;;;;;6.10;5.30;;;20.10;99.90;;;;;;5074649;28;20226;-43
2022/07/25 05:36:30;;;;;;;6.20;4.90;;;20.20;99.90;;;;;;5074709;28;20559;-43
2022/07/25 05:38:55;;;;;;;5.80;4.97;;;20.30;99.90;;;;;;5074691;28;20225;-42
2022/07/25 05:41:21;;;;;;;6.43;5.17;;;20.50;99.90;;;;;;5074600;28;20203;-43
2022/07/25 05:43:47;;;;;;;5.70;4.90;;;20.50;99.90;;;;;;5074712;28;20538;-43
2022/07/25 05:46:14;;;;;;;6.90;5.03;;;20.70;99.90;;;;;;5073967;28;20199;-43
2022/07/25 05:48:40;;;;;;;5.97;4.67;;;20.80;99.90;;;;;;5073898;28;20208;-42
2022/07/25 05:51:06;;;;;;;5.87;4.90;;;21.00;99.90;;;;;;5056832;28;20203;-45
2022/07/25 05:53:32;;;;;;;8.07;4.90;;;21.10;99.90;;;;;;5074176;28;20187;-44
2022/07/25 05:55:57;;;;;;;13.03;5.23;;;21.20;99.90;;;;;;5073785;28;20183;-43
2022/07/25 05:58:23;;;;;;;5.33;4.57;;;21.30;99.90;;;;;;5074033;28;20183;-45
2022/07/25 06:00:49;;;;;;;5.77;5.00;;;21.40;99.90;;;;;;5073879;28;20208;-45
2022/07/25 06:03:18;;;;;;;10.03;5.00;;;21.60;99.90;;;;;;5073964;28;20175;-42
2022/07/25 06:05:45;;;;;;;5.97;4.73;;;21.60;99.90;;;;;;5074313;28;20191;-43
2022/07/25 06:08:12;;;;;;;8.27;5.10;;;21.80;99.90;;;;;;5073468;28;20203;-43
2022/07/25 06:10:38;;;;;;;5.53;4.80;;;22.00;99.90;;;;;;5074782;28;20322;-44
2022/07/25 06:13:04;;;;;;;5.73;4.77;;;22.10;99.90;;;;;;5074463;28;20188;-43
2022/07/25 06:15:29;;;;;;;5.00;4.50;;;22.30;99.90;;;;;;5056119;28;20183;-44
2022/07/25 06:17:55;;;;;;;8.10;5.27;;;22.40;99.90;;;;;;5074173;28;20198;-42
2022/07/25 06:20:21;;;;;;;5.67;4.80;;;22.60;99.90;;;;;;5074095;28;20600;-42
2022/07/25 06:22:47;;;;;;;7.00;4.63;;;22.70;99.90;;;;;;5073685;28;20221;-45
2022/07/25 06:25:13;;;;;;;5.30;4.57;;;22.90;99.90;;;;;;5073754;28;20184;-43
2022/07/25 06:27:39;;;;;;;6.90;4.70;;;23.00;99.90;;;;;;5073513;28;20200;-44
2022/07/25 06:30:06;;;;;;;7.07;4.67;;;23.10;99.90;;;;;;5073558;28;20744;-44
2022/07/25 06:32:32;;;;;;;5.03;4.43;;;23.20;99.90;;;;;;5073657;28;20292;-42
2022/07/25 06:34:58;;;;;;;6.53;4.50;;;23.30;99.90;;;;;;5073723;28;20677;-44
2022/07/25 06:37:23;;;;;;;6.67;5.10;;;23.50;99.90;;;;;;5073673;28;20179;-44
2022/07/25 06:39:49;;;;;;;5.90;4.70;;;23.60;99.90;;;;;;5073378;28;20334;-44
2022/07/25 06:42:14;;;;;;;5.47;4.87;;;23.70;99.90;;;;;;5073600;28;20199;-44
2022/07/25 06:44:40;;;;;;;9.10;4.70;;;23.90;99.90;;;;;;5073884;28;20222;-43
2022/07/25 06:47:11;;;;;;;9.67;5.10;;;24.00;99.90;;;;;;5074301;28;20179;-44
2022/07/25 06:49:37;;;;;;;6.40;4.50;;;24.20;99.90;;;;;;5073957;28;20253;-43
2022/07/25 06:52:03;;;;;;;5.93;4.17;;;24.30;99.90;;;;;;5073898;28;20211;-44
2022/07/25 06:54:29;;;;;;;4.80;4.30;;;24.40;99.90;;;;;;5073851;28;20175;-42
2022/07/25 06:56:54;;;;;;;8.60;4.47;;;24.50;99.90;;;;;;5073736;28;20270;-42
2022/07/25 06:59:20;;;;;;;4.80;4.17;;;24.60;99.90;;;;;;5073685;28;20206;-43
2022/07/25 07:01:46;;;;;;;8.60;5.03;;;24.70;99.90;;;;;;5073570;28;20270;-43
2022/07/25 07:04:11;;;;;;;7.73;4.87;;;24.80;99.90;;;;;;5055444;28;20187;-44
2022/07/25 07:06:38;;;;;;;5.17;4.50;;;24.90;99.90;;;;;;5074075;28;20229;-43
2022/07/25 07:09:04;;;;;;;9.27;4.17;;;25.00;99.90;;;;;;5073522;28;20214;-44
2022/07/25 07:11:29;;;;;;;5.60;4.30;;;25.10;99.90;;;;;;5073656;28;20195;-43
2022/07/25 07:13:55;;;;;;;6.80;4.23;;;25.20;99.90;;;;;;5073025;28;20207;-44
2022/07/25 07:16:21;;;;;;;6.83;4.87;;;25.30;99.90;;;;;;5073189;28;20263;-43
2022/07/25 07:18:46;;;;;;;6.80;4.30;;;25.40;99.90;;;;;;5073835;28;20184;-44
2022/07/25 07:21:12;;;;;;;10.03;4.63;;;25.50;99.90;;;;;;5077204;28;20191;-42
2022/07/25 07:23:38;;;;;;;7.00;4.63;;;25.50;99.90;;;;;;5077430;28;20184;-44
2022/07/25 07:26:03;;;;;;;5.20;4.70;;;25.70;99.90;;;;;;5059787;28;20198;-43
2022/07/25 07:28:29;;;;;;;6.43;4.70;;;25.70;99.90;;;;;;5077829;28;20199;-45
2022/07/25 07:30:54;;;;;;;7.87;4.47;;;25.70;99.90;;;;;;5078247;28;20202;-45
2022/07/25 07:33:20;;;;;;;5.90;4.53;;;25.70;99.90;;;;;;5078397;28;20250;-45
2022/07/25 07:35:46;;;;;;;7.90;5.07;;;25.60;99.90;;;;;;5078501;28;20175;-45
2022/07/25 07:38:12;;;;;;;6.97;4.97;;;25.60;99.90;;;;;;5078098;28;20632;-45
2022/07/25 07:40:37;;;;;;;7.07;4.90;;;25.60;99.90;;;;;;5078072;28;20206;-44
2022/07/25 07:43:03;;;;;;;6.07;4.60;;;25.60;99.90;;;;;;5078107;28;20549;-45
2022/07/25 07:45:29;;;;;;;5.90;4.97;;;25.60;99.90;;;;;;5078449;28;20299;-43
2022/07/25 07:47:55;;;;;;;7.27;4.83;;;25.70;99.90;;;;;;5078602;28;20187;-43
2022/07/25 07:50:26;;;;;;;6.40;4.87;;;25.60;99.90;;;;;;5078774;28;20191;-44
2022/07/25 07:52:54;;;;;;;4.90;4.23;;;25.60;99.90;;;;;;5078860;28;20623;-43
2022/07/25 07:58:06;;;;;;;8.10;4.57;;;25.50;99.90;;;;;;5079334;28;20170;-43
2022/07/25 08:00:35;;;;;;;7.47;4.07;;;25.50;99.90;;;;;;5078495;28;20249;-45
2022/07/25 08:03:01;;;;;;;6.57;5.37;;;25.50;99.90;;;;;;5078741;28;20187;-43
2022/07/25 08:05:31;;;;;;;10.07;4.53;;;25.50;99.90;;;;;;5079498;28;20262;-45
2022/07/25 08:07:57;;;;;;;5.30;4.33;;;25.40;99.90;;;;;;5081228;28;20249;-44
2022/07/25 08:10:26;;;;;;;7.83;4.60;;;25.30;99.90;;;;;;5078192;28;20260;-43
2022/07/25 08:12:52;;;;;;;6.47;4.50;;;25.20;99.90;;;;;;5078471;28;20180;-43
2022/07/25 08:15:19;;;;;;;5.20;4.23;;;25.20;99.90;;;;;;5078411;28;20279;-43
2022/07/25 08:17:46;;;;;;;6.30;4.37;;;25.20;99.90;;;;;;5078085;28;20180;-44
2022/07/25 08:20:12;;;;;;;9.83;4.30;;;25.20;99.90;;;;;;5078286;28;20207;-45
2022/07/25 08:22:40;;;;;;;8.83;4.27;;;25.10;99.90;;;;;;5078467;28;20309;-45
2022/07/25 08:25:08;;;;;;;6.10;5.27;;;25.10;99.90;;;;;;5080018;28;20183;-43
2022/07/25 08:27:33;;;;;;;8.83;4.87;;;25.10;99.90;;;;;;5077672;28;20176;-44
2022/07/25 08:30:00;;;;;;;6.03;4.17;;;25.00;99.90;;;;;;5075549;28;20750;-44
2022/07/25 08:32:27;;;;;;;6.93;4.30;;;25.00;99.90;;;;;;5076589;28;20184;-45
2022/07/25 08:34:53;;;;;;;8.07;5.37;;;25.00;99.90;;;;;;5076492;28;20190;-45
2022/07/25 08:37:19;;;;;;;5.27;4.70;;;24.90;99.90;;;;;;5075935;28;20666;-44
2022/07/25 08:39:44;;;;;;;7.73;4.90;;;24.90;99.90;;;;;;5076352;28;20729;-42
2022/07/25 08:42:10;;;;;;;5.17;4.67;;;25.00;99.90;;;;;;5075967;28;20598;-43
2022/07/25 08:44:40;;;;;;;5.77;4.63;;;25.20;99.90;;;;;;5076552;28;20255;-43
2022/07/25 08:47:07;;;;;;;7.70;4.73;;;25.30;99.90;;;;;;5075917;28;20183;-43
2022/07/25 08:49:33;;;;;;;6.17;4.43;;;25.60;99.90;;;;;;5075542;28;20208;-44
2022/07/25 08:52:01;;;;;;;5.53;4.30;;;25.90;99.90;;;;;;5076106;28;20222;-44
2022/07/25 08:54:27;;;;;;;6.73;4.17;;;26.10;99.90;;;;;;5076563;28;20193;-44
2022/07/25 08:56:52;;;;;;;4.20;3.70;;;26.20;99.90;;;;;;5080208;28;20259;-44
2022/07/25 08:59:18;;;;;;;5.13;3.50;;;26.20;99.90;;;;;;5074989;28;20233;-41
2022/07/25 09:01:43;;;;;;;5.60;3.90;;;26.20;99.90;;;;;;5074769;28;20186;-42
2022/07/25 09:04:09;;;;;;;10.13;3.40;;;26.20;99.90;;;;;;5074926;28;20172;-42
2022/07/25 09:06:36;;;;;;;7.53;3.30;;;26.10;99.90;;;;;;5074794;28;20214;-43
2022/07/25 09:09:03;;;;;;;5.23;3.20;;;26.10;99.90;;;;;;5074905;28;20241;-42
2022/07/25 09:11:35;;;;;;;4.63;3.17;;;26.00;99.90;;;;;;5074470;28;20252;-41
2022/07/25 09:14:03;;;;;;;4.30;3.07;;;26.10;99.90;;;;;;5074424;28;20693;-41
2022/07/25 09:16:42;;;;;;;8.67;3.10;;;26.20;99.90;;;;;;5074457;28;20178;-41
2022/07/25 09:19:18;;;;;;;4.53;3.27;;;26.30;99.90;;;;;;5074777;28;20213;-41
2022/07/25 09:21:56;;;;;;;6.50;3.37;;;26.30;99.90;;;;;;5074689;28;20616;-43
2022/07/25 09:24:21;;;;;;;5.07;3.33;;;26.30;99.90;;;;;;5074338;28;20217;-40
2022/07/25 09:26:52;;;;;;;3.93;2.67;;;26.40;99.90;;;;;;5074207;28;20175;-40
2022/07/25 09:29:26;;;;;;;4.37;2.70;;;26.40;99.90;;;;;;5074215;28;20211;-38
2022/07/25 09:31:53;;;;;;;3.50;2.70;;;26.50;99.90;;;;;;5074054;28;20159;-39
2022/07/25 09:34:33;;;;;;;4.53;2.83;;;26.50;99.90;;;;;;5056090;28;20175;-38
2022/07/25 09:37:00;;;;;;;3.47;2.80;;;26.50;99.90;;;;;;5074287;28;20163;-40
2022/07/25 09:39:43;;;;;;;5.60;3.00;;;26.40;99.90;;;;;;5073960;28;20172;-38
2022/07/25 09:42:24;;;;;;;2.90;2.53;;;26.30;99.90;;;;;;5073381;28;20211;-40
2022/07/25 09:44:56;;;;;;;3.37;2.90;;;26.20;99.90;;;;;;5073696;28;20245;-38
2022/07/25 09:47:22;;;;;;;2.60;2.40;;;26.20;99.90;;;;;;5073867;28;20170;-37
2022/07/25 09:49:48;;;;;;;4.33;2.67;;;26.20;99.90;;;;;;5073866;28;20694;-41
2022/07/25 09:52:16;;;;;;;4.50;2.60;;;26.20;99.90;;;;;;5073772;28;20221;-37
2022/07/25 09:54:45;;;;;;;3.70;2.53;;;26.20;99.90;;;;;;5073826;28;20643;-40
2022/07/25 09:57:11;;;;;;;4.83;2.57;;;26.10;99.90;;;;;;5073785;28;20233;-40
2022/07/25 09:59:37;;;;;;;4.43;2.20;;;26.00;99.90;;;;;;5073748;28;20195;-41
2022/07/25 10:02:07;;;;;;;3.63;2.30;;;26.00;99.90;;;;;;5073672;28;20704;-40
2022/07/25 10:05:18;;;;;;;4.67;2.20;;;26.00;99.90;;;;;;5074147;28;20180;-43
2022/07/25 10:07:49;;;;;;;2.97;2.27;;;26.00;99.90;;;;;;5070441;28;20683;-39
2022/07/25 10:10:28;;;;;;;3.23;2.40;;;26.10;99.90;;;;;;5073729;28;20214;-39
2022/07/25 10:13:27;;;;;;;3.93;2.30;;;26.10;99.90;;;;;;5073814;28;20185;-40
2022/07/25 10:15:53;;;;;;;2.43;2.20;;;26.30;99.90;;;;;;5069959;28;20686;-40
2022/07/25 10:18:23;;;;;;;7.20;2.60;;;26.40;99.90;;;;;;5073366;28;20219;-39
2022/07/25 10:20:52;;;;;;;3.43;2.10;;;26.40;99.90;;;;;;5073452;28;20278;-38
2022/07/25 10:23:26;;;;;;;3.67;2.30;;;26.40;99.90;;;;;;5073406;28;20180;-40
2022/07/25 10:26:10;;;;;;;3.47;1.90;;;26.50;99.90;;;;;;5073715;28;20200;-39
2022/07/25 10:28:44;;;;;;;3.47;2.20;;;26.60;99.90;;;;;;5055361;28;20577;-42
2022/07/25 10:31:14;;;;;;;3.70;2.00;;;26.80;99.90;;;;;;5055752;28;20559;-41
2022/07/25 10:33:41;;;;;;;6.57;2.37;;;26.90;99.90;;;;;;5055334;28;20207;-43
2022/07/25 10:36:07;;;;;;;2.97;2.37;;;27.00;99.90;;;;;;5073533;28;20188;-39
2022/07/25 10:38:33;;;;;;;3.03;2.20;;;27.00;99.90;;;;;;5073486;28;20302;-42
2022/07/25 10:41:04;;;;;;;2.97;2.10;;;27.00;99.90;;;;;;5073188;28;20278;-40
2022/07/25 10:43:36;;;;;;;3.17;2.30;;;26.90;99.90;;;;;;5073477;28;20175;-40
2022/07/25 10:46:14;;;;;;;5.07;2.57;;;26.90;99.90;;;;;;5073196;28;20270;-40
2022/07/25 10:48:40;;;;;;;3.87;2.10;;;27.00;99.90;;;;;;5073070;28;20196;-41
2022/07/25 10:51:08;;;;;;;5.03;2.53;;;27.20;99.90;;;;;;5073329;28;20204;-41
2022/07/25 10:53:48;;;;;;;2.73;2.00;;;27.20;99.90;;;;;;5074564;28;20228;-41
2022/07/25 10:56:15;;;;;;;3.97;2.27;;;27.20;99.90;;;;;;5077461;28;20194;-41
2022/07/25 10:58:57;;;;;;;2.33;1.90;;;27.30;99.90;;;;;;5077174;28;20184;-41
2022/07/25 11:01:27;;;;;;;4.50;2.63;;;27.30;99.90;;;;;;5077232;28;20227;-40
2022/07/25 11:03:55;;;;;;;3.70;2.30;;;27.20;99.90;;;;;;5059226;28;20186;-42
2022/07/25 11:06:36;;;;;;;6.13;2.53;;;27.30;99.90;;;;;;5059119;28;20214;-41
2022/07/25 11:09:12;;;;;;;4.70;2.50;;;27.40;99.90;;;;;;5076895;28;20722;-42
2022/07/25 11:11:46;;;;;;;4.73;2.60;;;27.50;99.90;;;;;;5077479;28;20195;-39
2022/07/25 11:14:17;;;;;;;6.83;2.90;;;27.60;99.90;;;;;;5077191;28;20192;-41
2022/07/25 11:16:44;;;;;;;6.03;2.53;;;27.60;99.90;;;;;;5076720;28;20176;-41
2022/07/25 11:19:20;;;;;;;6.00;2.90;;;27.70;99.90;;;;;;5076710;28;20708;-40
2022/07/25 11:21:52;;;;;;;5.30;2.60;;;27.80;99.90;;;;;;5077437;28;20261;-42
2022/07/25 11:24:18;;;;;;;5.47;2.50;;;27.90;99.90;;;;;;5077624;28;20583;-41
2022/07/25 11:26:45;;;;;;;3.90;2.60;;;28.10;99.90;;;;;;5077857;28;20277;-41
2022/07/25 11:29:19;;;;;;;6.10;2.27;;;28.10;99.90;;;;;;5076895;28;20602;-44
2022/07/25 11:31:55;;;;;;;3.63;2.23;;;28.10;99.90;;;;;;5076727;28;20168;-45
2022/07/25 11:34:24;;;;;;;3.43;2.10;;;28.20;99.90;;;;;;5058786;28;20541;-43
2022/07/25 11:36:51;;;;;;;2.50;1.97;;;28.30;99.90;;;;;;5076843;28;20190;-40
2022/07/25 11:39:17;;;;;;;5.93;2.30;;;28.30;99.90;;;;;;5076456;28;20584;-38
2022/07/25 11:41:43;;;;;;;2.07;1.87;;;28.40;99.90;;;;;;5076513;28;20180;-40
2022/07/25 11:44:08;;;;;;;5.37;2.17;;;28.40;99.90;;;;;;5076447;28;20647;-40
2022/07/25 11:46:43;;;;;;;5.73;2.30;;;28.40;99.90;;;;;;5076465;28;20196;-45
2022/07/25 11:49:09;;;;;;;2.77;1.90;;;28.40;99.90;;;;;;5077662;28;20199;-45
2022/07/25 11:51:37;;;;;;;3.47;2.30;;;28.30;99.90;;;;;;5076608;28;20279;-43
2022/07/25 11:54:10;;;;;;;5.47;1.90;;;28.20;99.90;;;;;;5077475;28;20168;-44
2022/07/25 11:56:37;;;;;;;3.63;1.60;;;28.20;99.90;;;;;;5077147;28;20176;-44
2022/07/25 11:59:03;;;;;;;4.53;2.30;;;28.20;99.90;;;;;;5076950;28;20179;-45
2022/07/25 12:01:41;;;;;;;4.33;2.13;;;28.30;99.90;;;;;;5076277;28;20245;-41
2022/07/25 12:04:19;;;;;;;3.93;1.80;;;28.40;99.90;;;;;;5076574;28;20246;-39
2022/07/25 12:06:47;;;;;;;6.78;1.83;;;28.40;99.90;;;;;;5075903;28;20175;-39
2022/07/25 12:09:20;;;;;;;5.68;2.05;;;28.50;99.90;;;;;;5076156;28;20199;-39
2022/07/25 12:11:47;;;;;;;5.35;2.17;;;28.60;99.90;;;;;;5076013;28;20168;-41
2022/07/25 12:14:12;;;;;;;5.97;2.13;;;28.60;99.90;;;;;;5076558;28;20172;-41
2022/07/25 12:16:38;;;;;;;6.22;1.95;;;28.60;99.90;;;;;;5076366;28;20661;-40
2022/07/25 12:19:08;;;;;;;4.40;1.80;;;28.50;99.90;;;;;;5076490;28;20186;-40
2022/07/25 12:21:34;;;;;;;2.67;1.70;;;28.50;99.90;;;;;;5077062;28;20195;-40
2022/07/25 12:24:01;;;;;;;2.35;1.88;;;28.50;99.90;;;;;;5077100;28;20190;-40
2022/07/25 12:26:26;;;;;;;2.28;1.40;;;28.60;99.90;;;;;;5077132;28;20180;-40
2022/07/25 12:28:52;;;;;;;1.98;1.60;;;28.70;99.90;;;;;;5078775;28;20195;-40
2022/07/25 12:31:18;;;;;;;3.28;1.55;;;28.80;99.90;;;;;;5079604;28;20196;-39
2022/07/25 12:33:43;;;;;;;4.00;1.40;;;29.00;99.90;;;;;;5079468;28;20179;-40
2022/07/25 12:36:12;;;;;;;2.92;1.40;;;29.20;99.90;;;;;;5081417;28;20186;-41
2022/07/25 12:38:38;;;;;;;4.22;1.48;;;29.40;99.90;;;;;;5063859;28;20184;-41
2022/07/25 12:41:04;;;;;;;3.33;1.60;;;29.50;99.90;;;;;;5082719;28;20568;-40
2022/07/25 12:43:29;;;;;;;2.55;1.33;;;29.30;99.90;;;;;;5081897;28;20182;-40
2022/07/25 12:45:55;;;;;;;2.65;1.60;;;29.30;99.90;;;;;;5080560;28;20198;-39
2022/07/25 12:48:20;;;;;;;3.28;1.58;;;29.30;99.90;;;;;;5077782;28;20207;-39